sensor_id;sensor_type;location;lat;lon;timestamp;pressure;altitude;pressure_sealevel;temperature;humidity
19831;BME280;10076;52.008;4.708;2023-06-14T00:01:34;101526.13;;;21.48;100.00
19831;BME280;10076;52.008;4.708;2023-06-14T00:04:01;101523.72;;;21.37;100.00
19831;BME280;10076;52.008;4.708;2023-06-14T00:06:27;101525.94;;;21.42;100.00
19831;BME280;10076;52.008;4.708;2023-06-14T00:08:53;101525.19;;;21.32;100.00
19831;BME280;10076;52.008;4.708;2023-06-14T00:11:19;101523.91;;;21.36;100.00
19831;BME280;10076;52.008;4.708;2023-06-14T00:13:45;101514.50;;;21.40;100.00
19831;BME280;10076;52.008;4.708;2023-06-14T00:16:10;101520.50;;;21.34;100.00
19831;BME280;10076;52.008;4.708;2023-06-14T00:18:36;101526.28;;;21.47;100.00
19831;BME280;10076;52.008;4.708;2023-06-14T00:21:02;101519.41;;;21.44;100.00
19831;BME280;10076;52.008;4.708;2023-06-14T00:23:27;101521.56;;;21.41;100.00
19831;BME280;10076;52.008;4.708;2023-06-14T00:25:52;101530.09;;;21.36;100.00
19831;BME280;10076;52.008;4.708;2023-06-14T00:28:17;101523.84;;;21.28;100.00
19831;BME280;10076;52.008;4.708;2023-06-14T00:30:43;101528.13;;;21.13;100.00
19831;BME280;10076;52.008;4.708;2023-06-14T00:33:11;101526.59;;;21.10;100.00
19831;BME280;10076;52.008;4.708;2023-06-14T00:35:36;101527.38;;;21.03;100.00
19831;BME280;10076;52.008;4.708;2023-06-14T00:38:02;101524.75;;;21.11;100.00
19831;BME280;10076;52.008;4.708;2023-06-14T00:40:27;101533.50;;;21.13;100.00
19831;BME280;10076;52.008;4.708;2023-06-14T00:42:52;101536.59;;;21.00;100.00
19831;BME280;10076;52.008;4.708;2023-06-14T00:45:18;101521.69;;;21.06;100.00
19831;BME280;10076;52.008;4.708;2023-06-14T00:47:45;101525.38;;;21.05;100.00
19831;BME280;10076;52.008;4.708;2023-06-14T00:50:11;101529.22;;;21.02;100.00
19831;BME280;10076;52.008;4.708;2023-06-14T00:52:37;101526.91;;;21.07;100.00
19831;BME280;10076;52.008;4.708;2023-06-14T00:55:03;101529.75;;;21.06;100.00
19831;BME280;10076;52.008;4.708;2023-06-14T00:57:29;101532.34;;;20.90;100.00
19831;BME280;10076;52.008;4.708;2023-06-14T00:59:55;101526.72;;;20.83;100.00
19831;BME280;10076;52.008;4.708;2023-06-14T01:02:20;101525.28;;;20.89;100.00
19831;BME280;10076;52.008;4.708;2023-06-14T01:04:48;101529.13;;;20.86;100.00
19831;BME280;10076;52.008;4.708;2023-06-14T01:07:40;101529.09;;;20.69;100.00
19831;BME280;10076;52.008;4.708;2023-06-14T01:12:58;101528.97;;;20.88;100.00
19831;BME280;10076;52.008;4.708;2023-06-14T01:15:30;101529.59;;;20.82;100.00
19831;BME280;10076;52.008;4.708;2023-06-14T01:17:56;101518.91;;;20.90;100.00
19831;BME280;10076;52.008;4.708;2023-06-14T01:20:29;101527.91;;;20.81;100.00
19831;BME280;10076;52.008;4.708;2023-06-14T01:22:55;101522.84;;;20.78;100.00
19831;BME280;10076;52.008;4.708;2023-06-14T01:25:21;101527.69;;;20.75;100.00
19831;BME280;10076;52.008;4.708;2023-06-14T01:28:14;101527.06;;;20.81;100.00
19831;BME280;10076;52.008;4.708;2023-06-14T01:30:42;101523.00;;;20.77;100.00
19831;BME280;10076;52.008;4.708;2023-06-14T01:33:12;101520.00;;;20.80;100.00
19831;BME280;10076;52.008;4.708;2023-06-14T01:35:39;101524.53;;;20.79;100.00
19831;BME280;10076;52.008;4.708;2023-06-14T01:38:05;101525.53;;;20.78;100.00
19831;BME280;10076;52.008;4.708;2023-06-14T01:40:33;101525.13;;;20.73;100.00
19831;BME280;10076;52.008;4.708;2023-06-14T01:42:59;101516.38;;;20.71;100.00
19831;BME280;10076;52.008;4.708;2023-06-14T01:45:25;101528.22;;;20.78;100.00
19831;BME280;10076;52.008;4.708;2023-06-14T01:47:52;101525.00;;;20.75;100.00
19831;BME280;10076;52.008;4.708;2023-06-14T01:50:19;101520.84;;;20.63;100.00
19831;BME280;10076;52.008;4.708;2023-06-14T01:52:45;101520.38;;;20.67;100.00
19831;BME280;10076;52.008;4.708;2023-06-14T01:55:10;101518.38;;;20.69;100.00
19831;BME280;10076;52.008;4.708;2023-06-14T01:57:36;101524.69;;;20.60;100.00
19831;BME280;10076;52.008;4.708;2023-06-14T02:00:01;101521.63;;;20.55;100.00
19831;BME280;10076;52.008;4.708;2023-06-14T02:02:28;101513.19;;;20.50;100.00
19831;BME280;10076;52.008;4.708;2023-06-14T02:04:53;101514.56;;;20.37;100.00
19831;BME280;10076;52.008;4.708;2023-06-14T02:07:22;101511.81;;;20.46;100.00
19831;BME280;10076;52.008;4.708;2023-06-14T02:09:48;101509.50;;;20.51;100.00
19831;BME280;10076;52.008;4.708;2023-06-14T02:12:13;101517.94;;;20.56;100.00
19831;BME280;10076;52.008;4.708;2023-06-14T02:14:38;101509.00;;;20.48;100.00
19831;BME280;10076;52.008;4.708;2023-06-14T02:17:04;101507.44;;;20.45;100.00
19831;BME280;10076;52.008;4.708;2023-06-14T02:19:29;101514.19;;;20.49;100.00
19831;BME280;10076;52.008;4.708;2023-06-14T02:21:55;101513.91;;;20.35;100.00
19831;BME280;10076;52.008;4.708;2023-06-14T02:24:20;101511.38;;;20.33;100.00
19831;BME280;10076;52.008;4.708;2023-06-14T02:26:45;101524.09;;;20.31;100.00
19831;BME280;10076;52.008;4.708;2023-06-14T02:29:11;101520.41;;;20.32;100.00
19831;BME280;10076;52.008;4.708;2023-06-14T02:31:38;101518.94;;;20.38;100.00
19831;BME280;10076;52.008;4.708;2023-06-14T02:34:04;101530.63;;;20.29;100.00
19831;BME280;10076;52.008;4.708;2023-06-14T02:36:29;101527.06;;;20.28;100.00
19831;BME280;10076;52.008;4.708;2023-06-14T02:38:55;101517.56;;;20.34;100.00
19831;BME280;10076;52.008;4.708;2023-06-14T02:41:23;101529.75;;;20.28;100.00
19831;BME280;10076;52.008;4.708;2023-06-14T02:43:48;101527.63;;;20.14;100.00
19831;BME280;10076;52.008;4.708;2023-06-14T02:46:13;101525.75;;;20.15;100.00
19831;BME280;10076;52.008;4.708;2023-06-14T02:48:40;101538.56;;;20.21;100.00
19831;BME280;10076;52.008;4.708;2023-06-14T02:51:05;101532.13;;;20.14;100.00
19831;BME280;10076;52.008;4.708;2023-06-14T02:53:31;101535.06;;;20.20;100.00
19831;BME280;10076;52.008;4.708;2023-06-14T02:55:57;101535.06;;;20.20;100.00
19831;BME280;10076;52.008;4.708;2023-06-14T02:58:23;101531.13;;;20.15;100.00
19831;BME280;10076;52.008;4.708;2023-06-14T03:00:50;101536.50;;;20.15;100.00
19831;BME280;10076;52.008;4.708;2023-06-14T03:03:17;101546.13;;;20.08;100.00
19831;BME280;10076;52.008;4.708;2023-06-14T03:05:44;101544.31;;;20.09;100.00
19831;BME280;10076;52.008;4.708;2023-06-14T03:08:15;101537.81;;;20.11;100.00
19831;BME280;10076;52.008;4.708;2023-06-14T03:10:44;101540.84;;;19.99;100.00
19831;BME280;10076;52.008;4.708;2023-06-14T03:13:10;101543.00;;;19.95;100.00
19831;BME280;10076;52.008;4.708;2023-06-14T03:15:36;101548.66;;;19.83;100.00
19831;BME280;10076;52.008;4.708;2023-06-14T03:18:01;101556.41;;;19.86;100.00
19831;BME280;10076;52.008;4.708;2023-06-14T03:20:29;101558.84;;;19.79;100.00
19831;BME280;10076;52.008;4.708;2023-06-14T03:22:55;101559.03;;;19.68;100.00
19831;BME280;10076;52.008;4.708;2023-06-14T03:25:20;101561.44;;;19.71;100.00
19831;BME280;10076;52.008;4.708;2023-06-14T03:27:47;101561.63;;;19.87;100.00
19831;BME280;10076;52.008;4.708;2023-06-14T03:30:13;101563.66;;;19.76;100.00
19831;BME280;10076;52.008;4.708;2023-06-14T03:32:38;101569.63;;;19.70;100.00
19831;BME280;10076;52.008;4.708;2023-06-14T03:35:04;101570.09;;;19.83;100.00
19831;BME280;10076;52.008;4.708;2023-06-14T03:37:29;101574.25;;;19.77;100.00
19831;BME280;10076;52.008;4.708;2023-06-14T03:39:54;101575.66;;;19.72;100.00
19831;BME280;10076;52.008;4.708;2023-06-14T03:42:20;101574.91;;;19.79;100.00
19831;BME280;10076;52.008;4.708;2023-06-14T03:44:45;101570.66;;;19.86;100.00
19831;BME280;10076;52.008;4.708;2023-06-14T03:47:10;101577.56;;;19.89;100.00
19831;BME280;10076;52.008;4.708;2023-06-14T03:49:35;101576.59;;;19.80;100.00
19831;BME280;10076;52.008;4.708;2023-06-14T03:52:02;101577.56;;;19.89;100.00
19831;BME280;10076;52.008;4.708;2023-06-14T03:54:27;101588.47;;;19.78;100.00
19831;BME280;10076;52.008;4.708;2023-06-14T03:56:53;101590.72;;;19.82;100.00
19831;BME280;10076;52.008;4.708;2023-06-14T03:59:19;101586.75;;;19.86;100.00
19831;BME280;10076;52.008;4.708;2023-06-14T04:01:45;101593.56;;;19.81;100.00
19831;BME280;10076;52.008;4.708;2023-06-14T04:04:11;101596.63;;;19.86;100.00
19831;BME280;10076;52.008;4.708;2023-06-14T04:06:37;101592.97;;;19.87;100.00
19831;BME280;10076;52.008;4.708;2023-06-14T04:09:02;101589.72;;;19.93;100.00
19831;BME280;10076;52.008;4.708;2023-06-14T04:11:28;101598.81;;;20.00;100.00
19831;BME280;10076;52.008;4.708;2023-06-14T04:13:53;101601.81;;;19.97;100.00
19831;BME280;10076;52.008;4.708;2023-06-14T04:16:19;101598.97;;;19.98;100.00
19831;BME280;10076;52.008;4.708;2023-06-14T04:18:44;101603.69;;;20.13;100.00
19831;BME280;10076;52.008;4.708;2023-06-14T04:21:11;101606.59;;;20.03;100.00
19831;BME280;10076;52.008;4.708;2023-06-14T04:23:36;101609.66;;;20.08;100.00
19831;BME280;10076;52.008;4.708;2023-06-14T04:26:03;101601.66;;;19.98;100.00
19831;BME280;10076;52.008;4.708;2023-06-14T04:28:28;101600.53;;;20.01;100.00
19831;BME280;10076;52.008;4.708;2023-06-14T04:30:54;101604.69;;;20.13;100.00
19831;BME280;10076;52.008;4.708;2023-06-14T04:33:19;101612.84;;;20.20;100.00
19831;BME280;10076;52.008;4.708;2023-06-14T04:35:44;101617.50;;;20.18;100.00
19831;BME280;10076;52.008;4.708;2023-06-14T04:38:12;101611.31;;;20.35;100.00
19831;BME280;10076;52.008;4.708;2023-06-14T04:40:37;101611.91;;;20.29;100.00
19831;BME280;10076;52.008;4.708;2023-06-14T04:43:08;101615.91;;;20.25;100.00
19831;BME280;10076;52.008;4.708;2023-06-14T04:45:34;101616.28;;;20.30;100.00
19831;BME280;10076;52.008;4.708;2023-06-14T04:47:59;101614.00;;;20.35;100.00
19831;BME280;10076;52.008;4.708;2023-06-14T04:50:25;101612.47;;;20.33;100.00
19831;BME280;10076;52.008;4.708;2023-06-14T04:52:50;101607.81;;;20.35;100.00
19831;BME280;10076;52.008;4.708;2023-06-14T04:55:16;101611.56;;;20.42;100.00
19831;BME280;10076;52.008;4.708;2023-06-14T04:57:42;101611.09;;;20.46;100.00
19831;BME280;10076;52.008;4.708;2023-06-14T05:00:08;101611.41;;;20.43;100.00
19831;BME280;10076;52.008;4.708;2023-06-14T05:02:34;101617.22;;;20.39;100.00
19831;BME280;10076;52.008;4.708;2023-06-14T05:05:00;101618.75;;;20.41;100.00
19831;BME280;10076;52.008;4.708;2023-06-14T05:07:26;101616.06;;;20.41;100.00
19831;BME280;10076;52.008;4.708;2023-06-14T05:09:52;101622.81;;;20.45;100.00
19831;BME280;10076;52.008;4.708;2023-06-14T05:12:17;101621.31;;;20.60;100.00
19831;BME280;10076;52.008;4.708;2023-06-14T05:14:45;101622.09;;;20.53;100.00
19831;BME280;10076;52.008;4.708;2023-06-14T05:17:11;101624.00;;;20.60;100.00
19831;BME280;10076;52.008;4.708;2023-06-14T05:19:36;101625.06;;;20.67;100.00
19831;BME280;10076;52.008;4.708;2023-06-14T05:22:01;101629.59;;;20.67;100.00
19831;BME280;10076;52.008;4.708;2023-06-14T05:24:27;101634.34;;;20.73;100.00
19831;BME280;10076;52.008;4.708;2023-06-14T05:26:55;101633.31;;;20.83;100.00
19831;BME280;10076;52.008;4.708;2023-06-14T05:29:20;101628.13;;;20.72;100.00
19831;BME280;10076;52.008;4.708;2023-06-14T05:31:46;101635.50;;;20.70;100.00
19831;BME280;10076;52.008;4.708;2023-06-14T05:34:11;101631.63;;;20.82;100.00
19831;BME280;10076;52.008;4.708;2023-06-14T05:36:36;101632.53;;;20.90;100.00
19831;BME280;10076;52.008;4.708;2023-06-14T05:39:02;101636.28;;;20.97;100.00
19831;BME280;10076;52.008;4.708;2023-06-14T05:41:28;101635.13;;;21.00;100.00
19831;BME280;10076;52.008;4.708;2023-06-14T05:43:54;101633.28;;;21.00;100.00
19831;BME280;10076;52.008;4.708;2023-06-14T05:46:20;101638.09;;;21.14;100.00
19831;BME280;10076;52.008;4.708;2023-06-14T05:48:49;101640.66;;;20.98;100.00
19831;BME280;10076;52.008;4.708;2023-06-14T05:51:15;101637.72;;;21.09;100.00
19831;BME280;10076;52.008;4.708;2023-06-14T05:53:44;101643.84;;;21.19;100.00
19831;BME280;10076;52.008;4.708;2023-06-14T05:56:09;101647.13;;;21.31;100.00
19831;BME280;10076;52.008;4.708;2023-06-14T05:58:35;101648.97;;;21.30;100.00
19831;BME280;10076;52.008;4.708;2023-06-14T06:01:00;101652.25;;;21.42;100.00
19831;BME280;10076;52.008;4.708;2023-06-14T06:03:26;101657.31;;;21.45;100.00
19831;BME280;10076;52.008;4.708;2023-06-14T06:05:54;101653.63;;;21.46;100.00
19831;BME280;10076;52.008;4.708;2023-06-14T06:08:20;101654.41;;;21.38;100.00
19831;BME280;10076;52.008;4.708;2023-06-14T06:10:46;101651.63;;;21.48;100.00
19831;BME280;10076;52.008;4.708;2023-06-14T06:13:11;101653.56;;;21.55;100.00
19831;BME280;10076;52.008;4.708;2023-06-14T06:15:36;101653.81;;;21.69;100.00
19831;BME280;10076;52.008;4.708;2023-06-14T06:18:02;101652.13;;;21.68;100.00
19831;BME280;10076;52.008;4.708;2023-06-14T06:20:27;101649.84;;;21.81;100.00
19831;BME280;10076;52.008;4.708;2023-06-14T06:22:53;101653.88;;;21.85;100.00
19831;BME280;10076;52.008;4.708;2023-06-14T06:25:19;101652.06;;;21.86;100.00
19831;BME280;10076;52.008;4.708;2023-06-14T06:27:44;101656.34;;;22.04;100.00
19831;BME280;10076;52.008;4.708;2023-06-14T06:30:10;101658.97;;;21.96;100.00
19831;BME280;10076;52.008;4.708;2023-06-14T06:32:36;101664.28;;;21.80;100.00
19831;BME280;10076;52.008;4.708;2023-06-14T06:35:01;101659.63;;;21.90;100.00
19831;BME280;10076;52.008;4.708;2023-06-14T06:37:26;101662.88;;;22.02;100.00
19831;BME280;10076;52.008;4.708;2023-06-14T06:39:52;101660.59;;;21.81;100.00
19831;BME280;10076;52.008;4.708;2023-06-14T06:42:17;101673.97;;;21.99;100.00
19831;BME280;10076;52.008;4.708;2023-06-14T06:44:42;101674.88;;;22.15;100.00
19831;BME280;10076;52.008;4.708;2023-06-14T06:47:07;101681.34;;;22.30;100.00
19831;BME280;10076;52.008;4.708;2023-06-14T06:49:34;101686.75;;;22.30;100.00
19831;BME280;10076;52.008;4.708;2023-06-14T06:52:09;101687.81;;;22.45;100.00
19831;BME280;10076;52.008;4.708;2023-06-14T06:54:34;101693.59;;;22.58;100.00
19831;BME280;10076;52.008;4.708;2023-06-14T06:57:00;101686.81;;;22.54;100.00
19831;BME280;10076;52.008;4.708;2023-06-14T06:59:26;101690.41;;;22.70;100.00
19831;BME280;10076;52.008;4.708;2023-06-14T07:01:51;101693.75;;;22.64;100.00
19831;BME280;10076;52.008;4.708;2023-06-14T07:04:17;101700.69;;;22.75;100.00
19831;BME280;10076;52.008;4.708;2023-06-14T07:06:42;101702.06;;;22.94;100.00
19831;BME280;10076;52.008;4.708;2023-06-14T07:09:08;101705.81;;;23.01;100.00
19831;BME280;10076;52.008;4.708;2023-06-14T07:11:40;101711.53;;;23.06;100.00
19831;BME280;10076;52.008;4.708;2023-06-14T07:14:06;101703.66;;;23.13;100.00
19831;BME280;10076;52.008;4.708;2023-06-14T07:16:32;101710.91;;;23.20;100.00
19831;BME280;10076;52.008;4.708;2023-06-14T07:18:57;101708.19;;;23.20;100.00
19831;BME280;10076;52.008;4.708;2023-06-14T07:21:23;101709.53;;;23.40;100.00
19831;BME280;10076;52.008;4.708;2023-06-14T07:23:48;101708.56;;;23.33;100.00
19831;BME280;10076;52.008;4.708;2023-06-14T07:26:13;101708.72;;;23.48;99.75
19831;BME280;10076;52.008;4.708;2023-06-14T07:28:39;101719.50;;;23.48;100.00
19831;BME280;10076;52.008;4.708;2023-06-14T07:31:04;101722.16;;;23.64;100.00
19831;BME280;10076;52.008;4.708;2023-06-14T07:33:30;101726.38;;;23.82;100.00
19831;BME280;10076;52.008;4.708;2023-06-14T07:35:55;101723.69;;;23.90;100.00
19831;BME280;10076;52.008;4.708;2023-06-14T07:38:21;101715.72;;;24.04;100.00
19831;BME280;10076;52.008;4.708;2023-06-14T07:40:46;101720.53;;;24.25;98.81
19831;BME280;10076;52.008;4.708;2023-06-14T07:43:11;101719.38;;;24.19;97.52
19831;BME280;10076;52.008;4.708;2023-06-14T07:45:37;101720.31;;;24.42;97.06
19831;BME280;10076;52.008;4.708;2023-06-14T07:48:02;101718.78;;;24.39;96.41
19831;BME280;10076;52.008;4.708;2023-06-14T07:50:28;101731.94;;;24.50;94.91
19831;BME280;10076;52.008;4.708;2023-06-14T07:52:53;101733.66;;;24.36;93.62
19831;BME280;10076;52.008;4.708;2023-06-14T07:55:19;101733.28;;;24.38;94.19
19831;BME280;10076;52.008;4.708;2023-06-14T07:57:44;101744.84;;;24.25;93.75
19831;BME280;10076;52.008;4.708;2023-06-14T08:00:10;101744.69;;;24.64;91.06
19831;BME280;10076;52.008;4.708;2023-06-14T08:02:39;101743.97;;;24.78;92.02
19831;BME280;10076;52.008;4.708;2023-06-14T08:05:05;101744.03;;;24.62;94.53
19831;BME280;10076;52.008;4.708;2023-06-14T08:07:30;101748.03;;;24.74;94.09
19831;BME280;10076;52.008;4.708;2023-06-14T08:09:55;101752.38;;;24.83;97.32
19831;BME280;10076;52.008;4.708;2023-06-14T08:12:20;101740.56;;;25.14;92.64
19831;BME280;10076;52.008;4.708;2023-06-14T08:14:46;101742.59;;;25.35;91.66
19831;BME280;10076;52.008;4.708;2023-06-14T08:17:11;101748.78;;;25.43;88.70
19831;BME280;10076;52.008;4.708;2023-06-14T08:19:36;101740.09;;;25.48;90.14
19831;BME280;10076;52.008;4.708;2023-06-14T08:22:02;101739.47;;;25.46;88.32
19831;BME280;10076;52.008;4.708;2023-06-14T08:24:28;101733.53;;;25.65;88.33
19831;BME280;10076;52.008;4.708;2023-06-14T08:26:54;101747.69;;;25.75;85.62
19831;BME280;10076;52.008;4.708;2023-06-14T08:29:19;101745.75;;;25.97;81.53
19831;BME280;10076;52.008;4.708;2023-06-14T08:31:45;101744.34;;;26.01;82.33
19831;BME280;10076;52.008;4.708;2023-06-14T08:34:10;101744.09;;;26.25;78.79
19831;BME280;10076;52.008;4.708;2023-06-14T08:36:36;101734.19;;;26.32;77.56
19831;BME280;10076;52.008;4.708;2023-06-14T08:39:01;101741.94;;;26.35;76.97
19831;BME280;10076;52.008;4.708;2023-06-14T08:41:28;101747.22;;;26.37;77.87
19831;BME280;10076;52.008;4.708;2023-06-14T08:43:55;101754.56;;;26.57;74.39
19831;BME280;10076;52.008;4.708;2023-06-14T08:46:20;101750.16;;;26.70;74.22
19831;BME280;10076;52.008;4.708;2023-06-14T08:48:48;101745.28;;;26.80;73.08
19831;BME280;10076;52.008;4.708;2023-06-14T08:51:18;101752.34;;;26.96;75.65
19831;BME280;10076;52.008;4.708;2023-06-14T08:53:43;101747.47;;;26.91;72.78
19831;BME280;10076;52.008;4.708;2023-06-14T08:56:09;101747.66;;;27.04;72.79
19831;BME280;10076;52.008;4.708;2023-06-14T08:58:44;101746.19;;;27.23;71.44
19831;BME280;10076;52.008;4.708;2023-06-14T09:01:10;101744.13;;;27.24;72.61
19831;BME280;10076;52.008;4.708;2023-06-14T09:03:42;101747.06;;;27.50;71.49
19831;BME280;10076;52.008;4.708;2023-06-14T09:06:09;101740.69;;;27.79;70.46
19831;BME280;10076;52.008;4.708;2023-06-14T09:08:43;101752.97;;;28.02;67.88
19831;BME280;10076;52.008;4.708;2023-06-14T09:11:15;101752.72;;;27.97;66.95
19831;BME280;10076;52.008;4.708;2023-06-14T09:13:41;101751.56;;;28.12;63.38
19831;BME280;10076;52.008;4.708;2023-06-14T09:16:07;101758.13;;;28.18;65.83
19831;BME280;10076;52.008;4.708;2023-06-14T09:18:40;101757.66;;;28.42;62.38
19831;BME280;10076;52.008;4.708;2023-06-14T09:21:10;101758.56;;;28.55;63.31
19831;BME280;10076;52.008;4.708;2023-06-14T09:23:41;101754.22;;;28.73;61.64
19831;BME280;10076;52.008;4.708;2023-06-14T09:26:15;101761.66;;;28.92;59.79
19831;BME280;10076;52.008;4.708;2023-06-14T09:28:48;101763.16;;;29.01;59.36
19831;BME280;10076;52.008;4.708;2023-06-14T09:31:14;101759.59;;;29.07;56.99
19831;BME280;10076;52.008;4.708;2023-06-14T09:33:48;101751.31;;;29.41;59.50
19831;BME280;10076;52.008;4.708;2023-06-14T09:36:20;101763.28;;;30.05;57.09
19831;BME280;10076;52.008;4.708;2023-06-14T09:38:56;101766.81;;;30.94;55.91
19831;BME280;10076;52.008;4.708;2023-06-14T09:41:32;101768.47;;;31.39;52.38
19831;BME280;10076;52.008;4.708;2023-06-14T09:44:02;101779.88;;;31.29;52.76
19831;BME280;10076;52.008;4.708;2023-06-14T09:46:29;101768.94;;;30.92;53.92
19831;BME280;10076;52.008;4.708;2023-06-14T09:48:58;101777.91;;;30.55;50.76
19831;BME280;10076;52.008;4.708;2023-06-14T09:51:24;101762.78;;;30.59;51.05
19831;BME280;10076;52.008;4.708;2023-06-14T09:53:52;101760.00;;;30.72;51.39
19831;BME280;10076;52.008;4.708;2023-06-14T09:56:28;101760.00;;;31.16;48.95
19831;BME280;10076;52.008;4.708;2023-06-14T09:58:56;101772.03;;;32.61;48.29
19831;BME280;10076;52.008;4.708;2023-06-14T10:01:24;101772.91;;;34.47;44.00
19831;BME280;10076;52.008;4.708;2023-06-14T10:03:55;101776.38;;;35.77;37.90
19831;BME280;10076;52.008;4.708;2023-06-14T10:06:26;101776.13;;;36.65;36.73
19831;BME280;10076;52.008;4.708;2023-06-14T10:08:56;101773.41;;;37.13;34.74
19831;BME280;10076;52.008;4.708;2023-06-14T10:11:22;101773.03;;;37.26;34.29
19831;BME280;10076;52.008;4.708;2023-06-14T10:13:48;101772.53;;;37.86;32.49
19831;BME280;10076;52.008;4.708;2023-06-14T10:16:20;101768.03;;;38.53;32.02
19831;BME280;10076;52.008;4.708;2023-06-14T10:23:48;101781.94;;;40.33;31.17
19831;BME280;10076;52.008;4.708;2023-06-14T10:26:22;101769.56;;;40.84;27.41
19831;BME280;10076;52.008;4.708;2023-06-14T10:28:59;101772.44;;;41.22;27.76
19831;BME280;10076;52.008;4.708;2023-06-14T10:31:43;101775.94;;;41.37;26.45
19831;BME280;10076;52.008;4.708;2023-06-14T10:34:08;101767.97;;;41.64;26.78
19831;BME280;10076;52.008;4.708;2023-06-14T10:36:34;101773.88;;;42.47;26.94
19831;BME280;10076;52.008;4.708;2023-06-14T10:41:29;101770.72;;;43.37;24.86
19831;BME280;10076;52.008;4.708;2023-06-14T10:46:58;101779.16;;;43.51;24.34
19831;BME280;10076;52.008;4.708;2023-06-14T10:49:58;101784.34;;;44.21;23.35
19831;BME280;10076;52.008;4.708;2023-06-14T10:52:28;101775.41;;;44.77;23.29
19831;BME280;10076;52.008;4.708;2023-06-14T10:55:14;101774.25;;;45.76;21.50
19831;BME280;10076;52.008;4.708;2023-06-14T10:57:47;101782.03;;;46.39;21.44
19831;BME280;10076;52.008;4.708;2023-06-14T11:00:17;101778.31;;;47.75;22.25
19831;BME280;10076;52.008;4.708;2023-06-14T11:05:25;101781.19;;;48.21;19.68
19831;BME280;10076;52.008;4.708;2023-06-14T11:10:40;101778.56;;;48.91;19.57
19831;BME280;10076;52.008;4.708;2023-06-14T11:13:06;101771.63;;;49.90;18.99
19831;BME280;10076;52.008;4.708;2023-06-14T11:15:33;101766.47;;;50.84;18.27
19831;BME280;10076;52.008;4.708;2023-06-14T11:18:07;101764.34;;;51.32;17.77
19831;BME280;10076;52.008;4.708;2023-06-14T11:20:35;101773.34;;;51.10;17.39
19831;BME280;10076;52.008;4.708;2023-06-14T11:23:02;101757.84;;;51.16;16.88
19831;BME280;10076;52.008;4.708;2023-06-14T11:25:27;101759.00;;;51.54;17.01
19831;BME280;10076;52.008;4.708;2023-06-14T11:27:55;101762.66;;;51.98;16.69
19831;BME280;10076;52.008;4.708;2023-06-14T11:30:22;101754.03;;;51.36;16.45
19831;BME280;10076;52.008;4.708;2023-06-14T11:32:48;101761.41;;;51.68;16.35
19831;BME280;10076;52.008;4.708;2023-06-14T11:35:16;101754.66;;;51.57;15.75
19831;BME280;10076;52.008;4.708;2023-06-14T11:37:42;101750.09;;;51.80;16.12
19831;BME280;10076;52.008;4.708;2023-06-14T11:40:09;101745.81;;;51.86;15.50
19831;BME280;10076;52.008;4.708;2023-06-14T11:42:36;101742.81;;;51.79;15.58
19831;BME280;10076;52.008;4.708;2023-06-14T11:45:03;101735.53;;;52.08;15.65
19831;BME280;10076;52.008;4.708;2023-06-14T11:47:33;101742.91;;;52.75;15.18
19831;BME280;10076;52.008;4.708;2023-06-14T11:49:59;101740.22;;;53.72;15.22
19831;BME280;10076;52.008;4.708;2023-06-14T11:52:24;101731.34;;;52.98;15.56
19831;BME280;10076;52.008;4.708;2023-06-14T11:54:50;101728.72;;;51.79;15.66
19831;BME280;10076;52.008;4.708;2023-06-14T11:57:17;101734.47;;;52.44;15.99
19831;BME280;10076;52.008;4.708;2023-06-14T11:59:44;101732.03;;;53.30;15.46
19831;BME280;10076;52.008;4.708;2023-06-14T12:02:09;101732.63;;;53.57;14.93
19831;BME280;10076;52.008;4.708;2023-06-14T12:04:41;101729.91;;;53.83;14.96
19831;BME280;10076;52.008;4.708;2023-06-14T12:07:14;101736.69;;;54.24;15.04
19831;BME280;10076;52.008;4.708;2023-06-14T12:12:25;101730.38;;;54.08;14.27
19831;BME280;10076;52.008;4.708;2023-06-14T12:14:51;101732.06;;;54.12;14.12
19831;BME280;10076;52.008;4.708;2023-06-14T12:17:17;101731.50;;;54.03;14.31
19831;BME280;10076;52.008;4.708;2023-06-14T12:19:43;101742.56;;;53.89;14.37
19831;BME280;10076;52.008;4.708;2023-06-14T12:22:13;101726.75;;;54.07;14.31
19831;BME280;10076;52.008;4.708;2023-06-14T12:24:39;101729.97;;;55.09;13.84
19831;BME280;10076;52.008;4.708;2023-06-14T12:27:07;101731.41;;;54.70;13.86
19831;BME280;10076;52.008;4.708;2023-06-14T12:29:33;101738.75;;;55.01;13.64
19831;BME280;10076;52.008;4.708;2023-06-14T12:31:58;101740.41;;;54.76;14.08
19831;BME280;10076;52.008;4.708;2023-06-14T12:34:24;101727.22;;;53.90;14.65
19831;BME280;10076;52.008;4.708;2023-06-14T12:36:50;101731.50;;;52.71;14.94
19831;BME280;10076;52.008;4.708;2023-06-14T12:39:16;101732.53;;;50.92;15.72
19831;BME280;10076;52.008;4.708;2023-06-14T12:41:41;101717.31;;;48.64;16.35
19831;BME280;10076;52.008;4.708;2023-06-14T12:44:07;101713.91;;;46.83;17.55
19831;BME280;10076;52.008;4.708;2023-06-14T12:46:33;101715.91;;;44.68;18.78
19831;BME280;10076;52.008;4.708;2023-06-14T12:48:58;101704.88;;;42.49;20.37
19831;BME280;10076;52.008;4.708;2023-06-14T12:51:23;101698.06;;;41.29;21.28
19831;BME280;10076;52.008;4.708;2023-06-14T12:53:50;101695.59;;;39.81;22.92
19831;BME280;10076;52.008;4.708;2023-06-14T12:56:16;101700.78;;;38.93;23.53
19831;BME280;10076;52.008;4.708;2023-06-14T12:58:41;101691.38;;;37.82;24.72
19831;BME280;10076;52.008;4.708;2023-06-14T13:01:07;101685.69;;;37.31;25.06
19831;BME280;10076;52.008;4.708;2023-06-14T13:03:32;101697.44;;;36.95;25.53